sensor_id;sensor_type;location;lat;lon;timestamp;P1;durP1;ratioP1;P2;durP2;ratioP2
33830;SDS011;20137;48.834;8.732;2023-11-22T00:00:12;70.55;;;16.58;;
33830;SDS011;20137;48.834;8.732;2023-11-22T00:02:38;390.90;;;30.25;;
33830;SDS011;20137;48.834;8.732;2023-11-22T00:05:05;79.50;;;16.00;;
33830;SDS011;20137;48.834;8.732;2023-11-22T00:07:31;75.55;;;14.10;;
33830;SDS011;20137;48.834;8.732;2023-11-22T00:09:57;99.38;;;16.73;;
33830;SDS011;20137;48.834;8.732;2023-11-22T00:12:23;35.25;;;14.93;;
33830;SDS011;20137;48.834;8.732;2023-11-22T00:14:49;22.15;;;10.93;;
33830;SDS011;20137;48.834;8.732;2023-11-22T00:17:16;61.88;;;12.10;;
33830;SDS011;20137;48.834;8.732;2023-11-22T00:19:44;10.80;;;5.85;;
33830;SDS011;20137;48.834;8.732;2023-11-22T00:22:10;10.05;;;6.10;;
33830;SDS011;20137;48.834;8.732;2023-11-22T00:24:39;9.93;;;5.32;;
33830;SDS011;20137;48.834;8.732;2023-11-22T00:27:05;10.82;;;5.40;;
33830;SDS011;20137;48.834;8.732;2023-11-22T00:29:31;9.90;;;4.10;;
33830;SDS011;20137;48.834;8.732;2023-11-22T00:31:57;7.10;;;4.28;;
33830;SDS011;20137;48.834;8.732;2023-11-22T00:34:23;8.85;;;4.78;;
33830;SDS011;20137;48.834;8.732;2023-11-22T00:36:49;6.10;;;4.18;;
33830;SDS011;20137;48.834;8.732;2023-11-22T00:39:16;5.80;;;4.25;;
33830;SDS011;20137;48.834;8.732;2023-11-22T00:41:42;6.38;;;4.15;;
33830;SDS011;20137;48.834;8.732;2023-11-22T00:44:09;14.60;;;4.80;;
33830;SDS011;20137;48.834;8.732;2023-11-22T00:46:35;12.70;;;5.32;;
33830;SDS011;20137;48.834;8.732;2023-11-22T00:49:02;6.85;;;5.05;;
33830;SDS011;20137;48.834;8.732;2023-11-22T00:51:29;7.00;;;5.03;;
33830;SDS011;20137;48.834;8.732;2023-11-22T00:53:56;8.50;;;5.25;;
33830;SDS011;20137;48.834;8.732;2023-11-22T00:56:22;7.70;;;4.82;;
33830;SDS011;20137;48.834;8.732;2023-11-22T00:58:48;8.82;;;4.43;;
33830;SDS011;20137;48.834;8.732;2023-11-22T01:01:15;6.80;;;4.25;;
33830;SDS011;20137;48.834;8.732;2023-11-22T01:03:41;9.57;;;5.55;;
33830;SDS011;20137;48.834;8.732;2023-11-22T01:06:06;5.63;;;4.13;;
33830;SDS011;20137;48.834;8.732;2023-11-22T01:08:32;7.70;;;4.10;;
33830;SDS011;20137;48.834;8.732;2023-11-22T01:10:58;6.93;;;4.50;;
33830;SDS011;20137;48.834;8.732;2023-11-22T01:13:25;10.50;;;5.63;;
33830;SDS011;20137;48.834;8.732;2023-11-22T01:15:50;8.65;;;5.70;;
33830;SDS011;20137;48.834;8.732;2023-11-22T01:18:16;9.65;;;6.22;;
33830;SDS011;20137;48.834;8.732;2023-11-22T01:20:41;9.52;;;6.57;;
33830;SDS011;20137;48.834;8.732;2023-11-22T01:23:07;9.90;;;6.82;;
33830;SDS011;20137;48.834;8.732;2023-11-22T01:25:33;9.73;;;6.90;;
33830;SDS011;20137;48.834;8.732;2023-11-22T01:27:59;13.23;;;7.82;;
33830;SDS011;20137;48.834;8.732;2023-11-22T01:30:25;13.07;;;7.53;;
33830;SDS011;20137;48.834;8.732;2023-11-22T01:32:53;12.70;;;7.93;;
33830;SDS011;20137;48.834;8.732;2023-11-22T01:35:20;11.00;;;7.53;;
33830;SDS011;20137;48.834;8.732;2023-11-22T01:37:45;12.35;;;7.60;;
33830;SDS011;20137;48.834;8.732;2023-11-22T01:40:11;15.00;;;8.10;;
33830;SDS011;20137;48.834;8.732;2023-11-22T01:42:37;14.70;;;8.30;;
33830;SDS011;20137;48.834;8.732;2023-11-22T01:45:05;11.60;;;7.28;;
33830;SDS011;20137;48.834;8.732;2023-11-22T01:47:31;12.10;;;7.38;;
33830;SDS011;20137;48.834;8.732;2023-11-22T01:49:57;11.45;;;6.82;;
33830;SDS011;20137;48.834;8.732;2023-11-22T01:52:23;12.32;;;7.55;;
33830;SDS011;20137;48.834;8.732;2023-11-22T01:54:50;13.20;;;7.75;;
33830;SDS011;20137;48.834;8.732;2023-11-22T01:57:15;10.20;;;6.95;;
33830;SDS011;20137;48.834;8.732;2023-11-22T01:59:41;12.32;;;6.75;;
33830;SDS011;20137;48.834;8.732;2023-11-22T02:02:08;11.70;;;7.03;;
33830;SDS011;20137;48.834;8.732;2023-11-22T02:04:34;10.32;;;5.97;;
33830;SDS011;20137;48.834;8.732;2023-11-22T02:07:00;9.13;;;5.38;;
33830;SDS011;20137;48.834;8.732;2023-11-22T02:09:25;8.68;;;6.10;;
33830;SDS011;20137;48.834;8.732;2023-11-22T02:11:51;10.35;;;6.35;;
33830;SDS011;20137;48.834;8.732;2023-11-22T02:14:17;10.93;;;6.60;;
33830;SDS011;20137;48.834;8.732;2023-11-22T02:16:42;12.13;;;6.50;;
33830;SDS011;20137;48.834;8.732;2023-11-22T02:19:13;14.27;;;6.82;;
33830;SDS011;20137;48.834;8.732;2023-11-22T02:21:40;17.40;;;8.70;;
33830;SDS011;20137;48.834;8.732;2023-11-22T02:24:06;13.65;;;7.85;;
33830;SDS011;20137;48.834;8.732;2023-11-22T02:26:32;9.43;;;6.80;;
33830;SDS011;20137;48.834;8.732;2023-11-22T02:28:58;11.88;;;7.15;;
33830;SDS011;20137;48.834;8.732;2023-11-22T02:31:24;13.95;;;7.38;;
33830;SDS011;20137;48.834;8.732;2023-11-22T02:33:52;11.43;;;7.25;;
33830;SDS011;20137;48.834;8.732;2023-11-22T02:36:18;12.70;;;6.60;;
33830;SDS011;20137;48.834;8.732;2023-11-22T02:38:44;16.15;;;7.60;;
33830;SDS011;20137;48.834;8.732;2023-11-22T02:41:11;11.65;;;7.15;;
33830;SDS011;20137;48.834;8.732;2023-11-22T02:43:38;15.35;;;8.13;;
33830;SDS011;20137;48.834;8.732;2023-11-22T02:46:06;13.02;;;8.05;;
33830;SDS011;20137;48.834;8.732;2023-11-22T02:48:33;12.68;;;7.70;;
33830;SDS011;20137;48.834;8.732;2023-11-22T02:50:59;13.15;;;7.97;;
33830;SDS011;20137;48.834;8.732;2023-11-22T02:53:24;16.58;;;8.32;;
33830;SDS011;20137;48.834;8.732;2023-11-22T02:55:51;14.30;;;9.20;;
33830;SDS011;20137;48.834;8.732;2023-11-22T02:58:16;15.30;;;7.85;;
33830;SDS011;20137;48.834;8.732;2023-11-22T03:00:42;14.65;;;8.60;;
33830;SDS011;20137;48.834;8.732;2023-11-22T03:03:08;12.18;;;8.05;;
33830;SDS011;20137;48.834;8.732;2023-11-22T03:05:35;16.92;;;7.95;;
33830;SDS011;20137;48.834;8.732;2023-11-22T03:08:05;12.95;;;8.30;;
33830;SDS011;20137;48.834;8.732;2023-11-22T03:10:32;15.13;;;8.50;;
33830;SDS011;20137;48.834;8.732;2023-11-22T03:12:58;13.70;;;8.65;;
33830;SDS011;20137;48.834;8.732;2023-11-22T03:15:24;15.48;;;8.35;;
33830;SDS011;20137;48.834;8.732;2023-11-22T03:17:49;15.50;;;7.97;;
33830;SDS011;20137;48.834;8.732;2023-11-22T03:20:15;16.45;;;8.77;;
33830;SDS011;20137;48.834;8.732;2023-11-22T03:22:44;17.90;;;9.27;;
33830;SDS011;20137;48.834;8.732;2023-11-22T03:25:15;16.13;;;8.40;;
33830;SDS011;20137;48.834;8.732;2023-11-22T03:27:41;12.45;;;7.80;;
33830;SDS011;20137;48.834;8.732;2023-11-22T03:30:07;16.73;;;8.88;;
33830;SDS011;20137;48.834;8.732;2023-11-22T03:32:36;12.80;;;7.38;;
33830;SDS011;20137;48.834;8.732;2023-11-22T03:35:06;12.45;;;7.35;;
33830;SDS011;20137;48.834;8.732;2023-11-22T03:37:36;18.08;;;8.02;;
33830;SDS011;20137;48.834;8.732;2023-11-22T03:40:02;10.77;;;7.05;;
33830;SDS011;20137;48.834;8.732;2023-11-22T03:42:28;13.73;;;6.97;;
33830;SDS011;20137;48.834;8.732;2023-11-22T03:44:54;10.85;;;6.70;;
33830;SDS011;20137;48.834;8.732;2023-11-22T03:47:24;10.63;;;6.63;;
33830;SDS011;20137;48.834;8.732;2023-11-22T03:49:50;13.25;;;6.78;;
33830;SDS011;20137;48.834;8.732;2023-11-22T03:52:16;14.02;;;7.75;;
33830;SDS011;20137;48.834;8.732;2023-11-22T03:54:41;10.90;;;6.40;;
33830;SDS011;20137;48.834;8.732;2023-11-22T03:57:10;10.98;;;6.60;;
33830;SDS011;20137;48.834;8.732;2023-11-22T03:59:36;9.10;;;5.82;;
33830;SDS011;20137;48.834;8.732;2023-11-22T04:02:01;8.13;;;5.28;;
33830;SDS011;20137;48.834;8.732;2023-11-22T04:04:27;8.75;;;5.20;;
33830;SDS011;20137;48.834;8.732;2023-11-22T04:06:53;10.27;;;5.55;;
33830;SDS011;20137;48.834;8.732;2023-11-22T04:09:19;13.65;;;6.80;;
33830;SDS011;20137;48.834;8.732;2023-11-22T04:11:45;16.50;;;6.88;;
33830;SDS011;20137;48.834;8.732;2023-11-22T04:14:14;10.20;;;6.03;;
33830;SDS011;20137;48.834;8.732;2023-11-22T04:16:45;11.00;;;6.80;;
33830;SDS011;20137;48.834;8.732;2023-11-22T04:19:11;10.60;;;6.50;;
33830;SDS011;20137;48.834;8.732;2023-11-22T04:21:39;9.50;;;5.90;;
33830;SDS011;20137;48.834;8.732;2023-11-22T04:24:05;7.80;;;5.75;;
33830;SDS011;20137;48.834;8.732;2023-11-22T04:26:31;11.02;;;6.60;;
33830;SDS011;20137;48.834;8.732;2023-11-22T04:28:57;9.10;;;6.45;;
33830;SDS011;20137;48.834;8.732;2023-11-22T04:31:23;13.68;;;6.63;;
33830;SDS011;20137;48.834;8.732;2023-11-22T04:33:50;10.45;;;5.38;;
33830;SDS011;20137;48.834;8.732;2023-11-22T04:36:15;9.88;;;6.25;;
33830;SDS011;20137;48.834;8.732;2023-11-22T04:38:41;13.52;;;6.65;;
33830;SDS011;20137;48.834;8.732;2023-11-22T04:41:07;8.52;;;5.43;;
33830;SDS011;20137;48.834;8.732;2023-11-22T04:43:33;10.40;;;6.40;;
33830;SDS011;20137;48.834;8.732;2023-11-22T04:45:59;9.80;;;5.72;;
33830;SDS011;20137;48.834;8.732;2023-11-22T04:48:24;10.20;;;5.32;;
33830;SDS011;20137;48.834;8.732;2023-11-22T04:50:50;9.02;;;5.78;;
33830;SDS011;20137;48.834;8.732;2023-11-22T04:53:18;9.93;;;5.82;;
33830;SDS011;20137;48.834;8.732;2023-11-22T04:55:44;8.68;;;5.07;;
33830;SDS011;20137;48.834;8.732;2023-11-22T04:58:10;8.93;;;5.72;;
33830;SDS011;20137;48.834;8.732;2023-11-22T05:00:36;11.80;;;7.10;;
33830;SDS011;20137;48.834;8.732;2023-11-22T05:03:01;11.35;;;5.80;;
33830;SDS011;20137;48.834;8.732;2023-11-22T05:05:27;9.05;;;5.70;;
33830;SDS011;20137;48.834;8.732;2023-11-22T05:07:53;8.27;;;4.93;;
33830;SDS011;20137;48.834;8.732;2023-11-22T05:10:19;9.85;;;4.88;;
33830;SDS011;20137;48.834;8.732;2023-11-22T05:12:44;9.00;;;5.30;;
33830;SDS011;20137;48.834;8.732;2023-11-22T05:15:10;8.13;;;4.57;;
33830;SDS011;20137;48.834;8.732;2023-11-22T05:17:36;7.43;;;4.90;;
33830;SDS011;20137;48.834;8.732;2023-11-22T05:20:02;8.85;;;5.30;;
33830;SDS011;20137;48.834;8.732;2023-11-22T05:22:29;7.18;;;4.38;;
33830;SDS011;20137;48.834;8.732;2023-11-22T05:24:55;7.72;;;4.70;;
33830;SDS011;20137;48.834;8.732;2023-11-22T05:27:21;12.65;;;5.32;;
33830;SDS011;20137;48.834;8.732;2023-11-22T05:29:46;8.27;;;4.47;;
33830;SDS011;20137;48.834;8.732;2023-11-22T05:32:12;6.82;;;4.25;;
33830;SDS011;20137;48.834;8.732;2023-11-22T05:34:38;9.10;;;4.68;;
33830;SDS011;20137;48.834;8.732;2023-11-22T05:37:05;8.90;;;4.78;;
33830;SDS011;20137;48.834;8.732;2023-11-22T05:39:31;8.18;;;4.68;;
33830;SDS011;20137;48.834;8.732;2023-11-22T05:41:56;8.02;;;4.60;;
33830;SDS011;20137;48.834;8.732;2023-11-22T05:44:22;7.82;;;4.90;;
33830;SDS011;20137;48.834;8.732;2023-11-22T05:46:47;7.72;;;4.70;;
33830;SDS011;20137;48.834;8.732;2023-11-22T05:49:13;8.00;;;4.90;;
33830;SDS011;20137;48.834;8.732;2023-11-22T05:51:39;7.65;;;4.60;;
33830;SDS011;20137;48.834;8.732;2023-11-22T05:54:04;9.38;;;4.97;;
33830;SDS011;20137;48.834;8.732;2023-11-22T05:56:31;10.70;;;5.20;;
33830;SDS011;20137;48.834;8.732;2023-11-22T05:58:57;9.85;;;5.65;;
33830;SDS011;20137;48.834;8.732;2023-11-22T06:01:24;9.45;;;5.40;;
33830;SDS011;20137;48.834;8.732;2023-11-22T06:03:51;10.32;;;5.55;;
33830;SDS011;20137;48.834;8.732;2023-11-22T06:06:17;9.32;;;5.95;;
33830;SDS011;20137;48.834;8.732;2023-11-22T06:08:46;8.45;;;4.95;;
33830;SDS011;20137;48.834;8.732;2023-11-22T06:11:11;10.23;;;5.07;;
33830;SDS011;20137;48.834;8.732;2023-11-22T06:13:38;7.97;;;5.32;;
33830;SDS011;20137;48.834;8.732;2023-11-22T06:16:04;7.90;;;5.38;;
33830;SDS011;20137;48.834;8.732;2023-11-22T06:18:32;14.18;;;6.13;;
33830;SDS011;20137;48.834;8.732;2023-11-22T06:20:59;10.32;;;5.43;;
33830;SDS011;20137;48.834;8.732;2023-11-22T06:23:24;9.18;;;5.60;;
33830;SDS011;20137;48.834;8.732;2023-11-22T06:25:50;9.00;;;5.40;;
33830;SDS011;20137;48.834;8.732;2023-11-22T06:28:16;9.20;;;5.82;;
33830;SDS011;20137;48.834;8.732;2023-11-22T06:30:42;10.50;;;6.13;;
33830;SDS011;20137;48.834;8.732;2023-11-22T06:33:11;10.52;;;5.65;;
33830;SDS011;20137;48.834;8.732;2023-11-22T06:35:37;10.00;;;6.15;;
33830;SDS011;20137;48.834;8.732;2023-11-22T06:38:02;11.77;;;6.10;;
33830;SDS011;20137;48.834;8.732;2023-11-22T06:40:28;11.25;;;5.35;;
33830;SDS011;20137;48.834;8.732;2023-11-22T06:42:54;8.52;;;5.10;;
33830;SDS011;20137;48.834;8.732;2023-11-22T06:45:21;9.52;;;5.72;;
33830;SDS011;20137;48.834;8.732;2023-11-22T06:47:47;11.25;;;6.03;;
33830;SDS011;20137;48.834;8.732;2023-11-22T06:50:15;10.57;;;5.70;;
33830;SDS011;20137;48.834;8.732;2023-11-22T06:52:41;7.72;;;5.13;;
33830;SDS011;20137;48.834;8.732;2023-11-22T06:55:07;11.02;;;5.57;;
33830;SDS011;20137;48.834;8.732;2023-11-22T06:57:34;9.70;;;5.20;;
33830;SDS011;20137;48.834;8.732;2023-11-22T07:00:00;7.57;;;4.95;;
33830;SDS011;20137;48.834;8.732;2023-11-22T07:02:30;7.05;;;4.50;;
33830;SDS011;20137;48.834;8.732;2023-11-22T07:05:00;12.10;;;5.80;;
33830;SDS011;20137;48.834;8.732;2023-11-22T07:07:26;8.50;;;4.95;;
33830;SDS011;20137;48.834;8.732;2023-11-22T07:09:51;10.88;;;5.00;;
33830;SDS011;20137;48.834;8.732;2023-11-22T07:12:17;9.55;;;4.88;;
33830;SDS011;20137;48.834;8.732;2023-11-22T07:14:44;7.07;;;4.40;;
33830;SDS011;20137;48.834;8.732;2023-11-22T07:17:10;9.88;;;4.50;;
33830;SDS011;20137;48.834;8.732;2023-11-22T07:19:35;11.48;;;5.13;;
33830;SDS011;20137;48.834;8.732;2023-11-22T07:22:06;9.23;;;4.50;;
33830;SDS011;20137;48.834;8.732;2023-11-22T07:24:41;9.27;;;4.35;;
33830;SDS011;20137;48.834;8.732;2023-11-22T07:27:08;10.50;;;4.72;;
33830;SDS011;20137;48.834;8.732;2023-11-22T07:29:40;9.93;;;4.75;;
33830;SDS011;20137;48.834;8.732;2023-11-22T07:32:06;8.13;;;4.88;;
33830;SDS011;20137;48.834;8.732;2023-11-22T07:34:33;8.15;;;4.60;;
33830;SDS011;20137;48.834;8.732;2023-11-22T07:36:59;7.30;;;4.88;;
33830;SDS011;20137;48.834;8.732;2023-11-22T07:39:25;10.07;;;4.57;;
33830;SDS011;20137;48.834;8.732;2023-11-22T07:41:52;10.57;;;4.15;;
33830;SDS011;20137;48.834;8.732;2023-11-22T07:44:20;6.40;;;4.03;;
33830;SDS011;20137;48.834;8.732;2023-11-22T07:46:49;5.45;;;2.97;;
33830;SDS011;20137;48.834;8.732;2023-11-22T07:49:16;7.70;;;3.55;;
33830;SDS011;20137;48.834;8.732;2023-11-22T07:51:43;7.15;;;3.67;;
33830;SDS011;20137;48.834;8.732;2023-11-22T07:54:10;5.95;;;3.05;;
33830;SDS011;20137;48.834;8.732;2023-11-22T07:56:40;7.38;;;3.92;;
33830;SDS011;20137;48.834;8.732;2023-11-22T07:59:08;5.78;;;3.30;;
33830;SDS011;20137;48.834;8.732;2023-11-22T08:01:36;6.60;;;3.20;;
33830;SDS011;20137;48.834;8.732;2023-11-22T08:04:08;9.45;;;3.95;;
33830;SDS011;20137;48.834;8.732;2023-11-22T08:06:34;5.90;;;3.30;;
33830;SDS011;20137;48.834;8.732;2023-11-22T08:09:01;7.03;;;3.55;;
33830;SDS011;20137;48.834;8.732;2023-11-22T08:11:27;5.43;;;3.38;;
33830;SDS011;20137;48.834;8.732;2023-11-22T08:13:53;8.00;;;3.42;;
33830;SDS011;20137;48.834;8.732;2023-11-22T08:16:25;8.23;;;4.20;;
33830;SDS011;20137;48.834;8.732;2023-11-22T08:18:51;7.93;;;3.63;;
33830;SDS011;20137;48.834;8.732;2023-11-22T08:21:16;5.13;;;2.63;;
33830;SDS011;20137;48.834;8.732;2023-11-22T08:23:43;5.72;;;3.38;;
33830;SDS011;20137;48.834;8.732;2023-11-22T08:26:10;4.95;;;3.10;;
33830;SDS011;20137;48.834;8.732;2023-11-22T08:28:37;5.85;;;3.53;;
33830;SDS011;20137;48.834;8.732;2023-11-22T08:31:03;5.43;;;3.35;;
33830;SDS011;20137;48.834;8.732;2023-11-22T08:33:35;7.72;;;3.83;;
33830;SDS011;20137;48.834;8.732;2023-11-22T08:36:07;5.20;;;3.40;;
33830;SDS011;20137;48.834;8.732;2023-11-22T08:38:34;8.45;;;3.63;;
33830;SDS011;20137;48.834;8.732;2023-11-22T08:41:03;4.38;;;2.72;;
33830;SDS011;20137;48.834;8.732;2023-11-22T08:43:33;5.78;;;3.50;;
33830;SDS011;20137;48.834;8.732;2023-11-22T08:45:59;7.07;;;3.53;;
33830;SDS011;20137;48.834;8.732;2023-11-22T08:48:25;7.63;;;3.78;;
33830;SDS011;20137;48.834;8.732;2023-11-22T08:50:51;6.43;;;3.70;;
33830;SDS011;20137;48.834;8.732;2023-11-22T08:53:18;6.80;;;3.95;;
33830;SDS011;20137;48.834;8.732;2023-11-22T08:55:45;6.95;;;3.38;;
33830;SDS011;20137;48.834;8.732;2023-11-22T08:58:12;6.22;;;3.72;;
33830;SDS011;20137;48.834;8.732;2023-11-22T09:00:38;7.38;;;3.72;;
33830;SDS011;20137;48.834;8.732;2023-11-22T09:03:06;4.95;;;3.40;;
33830;SDS011;20137;48.834;8.732;2023-11-22T09:05:40;8.90;;;3.92;;
33830;SDS011;20137;48.834;8.732;2023-11-22T09:08:07;7.00;;;3.83;;
33830;SDS011;20137;48.834;8.732;2023-11-22T09:10:38;8.65;;;4.03;;
33830;SDS011;20137;48.834;8.732;2023-11-22T09:13:05;5.88;;;3.13;;
33830;SDS011;20137;48.834;8.732;2023-11-22T09:15:31;6.82;;;3.53;;
33830;SDS011;20137;48.834;8.732;2023-11-22T09:17:59;5.03;;;3.28;;
33830;SDS011;20137;48.834;8.732;2023-11-22T09:20:25;6.47;;;3.83;;
33830;SDS011;20137;48.834;8.732;2023-11-22T09:22:53;9.05;;;3.65;;
33830;SDS011;20137;48.834;8.732;2023-11-22T09:25:20;5.72;;;3.53;;
33830;SDS011;20137;48.834;8.732;2023-11-22T09:27:50;6.57;;;3.45;;
33830;SDS011;20137;48.834;8.732;2023-11-22T09:30:20;5.95;;;3.60;;
33830;SDS011;20137;48.834;8.732;2023-11-22T09:33:09;7.47;;;3.67;;
33830;SDS011;20137;48.834;8.732;2023-11-22T09:35:41;8.55;;;4.38;;
33830;SDS011;20137;48.834;8.732;2023-11-22T09:38:12;6.85;;;3.75;;
33830;SDS011;20137;48.834;8.732;2023-11-22T09:43:09;7.47;;;3.88;;
33830;SDS011;20137;48.834;8.732;2023-11-22T09:45:35;8.30;;;3.70;;
33830;SDS011;20137;48.834;8.732;2023-11-22T09:48:03;6.75;;;4.10;;
33830;SDS011;20137;48.834;8.732;2023-11-22T09:53:42;8.23;;;3.92;;
33830;SDS011;20137;48.834;8.732;2023-11-22T09:56:18;8.07;;;3.53;;
33830;SDS011;20137;48.834;8.732;2023-11-22T09:58:44;6.45;;;3.50;;
33830;SDS011;20137;48.834;8.732;2023-11-22T10:01:13;5.95;;;3.75;;
33830;SDS011;20137;48.834;8.732;2023-11-22T10:03:40;7.32;;;4.13;;
33830;SDS011;20137;48.834;8.732;2023-11-22T10:06:06;5.45;;;3.65;;
33830;SDS011;20137;48.834;8.732;2023-11-22T10:08:33;7.57;;;4.20;;
33830;SDS011;20137;48.834;8.732;2023-11-22T10:11:00;7.13;;;3.80;;
33830;SDS011;20137;48.834;8.732;2023-11-22T10:13:26;8.27;;;4.07;;
33830;SDS011;20137;48.834;8.732;2023-11-22T10:15:52;7.53;;;4.18;;
33830;SDS011;20137;48.834;8.732;2023-11-22T10:18:19;5.90;;;3.67;;
33830;SDS011;20137;48.834;8.732;2023-11-22T10:20:47;6.82;;;4.15;;
33830;SDS011;20137;48.834;8.732;2023-11-22T10:23:15;10.68;;;4.30;;
33830;SDS011;20137;48.834;8.732;2023-11-22T10:25:49;7.97;;;4.60;;
33830;SDS011;20137;48.834;8.732;2023-11-22T10:28:17;8.27;;;4.33;;
33830;SDS011;20137;48.834;8.732;2023-11-22T10:30:49;9.98;;;4.65;;
33830;SDS011;20137;48.834;8.732;2023-11-22T10:33:16;9.48;;;4.82;;
33830;SDS011;20137;48.834;8.732;2023-11-22T10:35:47;12.70;;;4.90;;
33830;SDS011;20137;48.834;8.732;2023-11-22T10:38:20;7.38;;;4.93;;
33830;SDS011;20137;48.834;8.732;2023-11-22T10:40:46;9.02;;;4.47;;
33830;SDS011;20137;48.834;8.732;2023-11-22T10:43:16;11.68;;;5.05;;
33830;SDS011;20137;48.834;8.732;2023-11-22T10:45:42;10.30;;;4.80;;
33830;SDS011;20137;48.834;8.732;2023-11-22T10:48:13;9.43;;;5.57;;
33830;SDS011;20137;48.834;8.732;2023-11-22T10:50:43;10.20;;;4.90;;
33830;SDS011;20137;48.834;8.732;2023-11-22T10:53:11;8.57;;;5.07;;
33830;SDS011;20137;48.834;8.732;2023-11-22T10:55:39;9.48;;;5.35;;
33830;SDS011;20137;48.834;8.732;2023-11-22T10:58:13;9.10;;;5.47;;
33830;SDS011;20137;48.834;8.732;2023-11-22T11:00:40;12.38;;;5.60;;
33830;SDS011;20137;48.834;8.732;2023-11-22T11:03:10;12.23;;;5.30;;
33830;SDS011;20137;48.834;8.732;2023-11-22T11:05:43;9.57;;;5.43;;
33830;SDS011;20137;48.834;8.732;2023-11-22T11:08:16;14.68;;;6.03;;
33830;SDS011;20137;48.834;8.732;2023-11-22T11:10:45;8.70;;;4.88;;
33830;SDS011;20137;48.834;8.732;2023-11-22T11:13:11;10.35;;;5.00;;
33830;SDS011;20137;48.834;8.732;2023-11-22T11:15:38;11.13;;;5.82;;
33830;SDS011;20137;48.834;8.732;2023-11-22T11:18:14;8.65;;;4.72;;
33830;SDS011;20137;48.834;8.732;2023-11-22T11:20:56;8.80;;;5.53;;
33830;SDS011;20137;48.834;8.732;2023-11-22T11:23:24;8.70;;;5.10;;
33830;SDS011;20137;48.834;8.732;2023-11-22T11:25:58;9.10;;;5.20;;
33830;SDS011;20137;48.834;8.732;2023-11-22T11:28:43;11.50;;;5.80;;
33830;SDS011;20137;48.834;8.732;2023-11-22T11:31:10;9.40;;;5.55;;
33830;SDS011;20137;48.834;8.732;2023-11-22T11:36:25;9.30;;;4.82;;
33830;SDS011;20137;48.834;8.732;2023-11-22T11:39:02;11.35;;;5.53;;
33830;SDS011;20137;48.834;8.732;2023-11-22T11:41:34;8.70;;;5.18;;
33830;SDS011;20137;48.834;8.732;2023-11-22T11:44:05;10.40;;;5.57;;
33830;SDS011;20137;48.834;8.732;2023-11-22T11:46:33;9.23;;;5.45;;
33830;SDS011;20137;48.834;8.732;2023-11-22T11:48:59;13.00;;;7.07;;
33830;SDS011;20137;48.834;8.732;2023-11-22T11:51:26;12.82;;;5.72;;
33830;SDS011;20137;48.834;8.732;2023-11-22T11:53:53;9.40;;;5.53;;
33830;SDS011;20137;48.834;8.732;2023-11-22T11:56:19;11.90;;;5.85;;
33830;SDS011;20137;48.834;8.732;2023-11-22T11:58:46;11.57;;;6.15;;
33830;SDS011;20137;48.834;8.732;2023-11-22T12:01:17;9.63;;;5.90;;
33830;SDS011;20137;48.834;8.732;2023-11-22T12:03:47;10.00;;;6.35;;
33830;SDS011;20137;48.834;8.732;2023-11-22T12:06:16;12.13;;;5.85;;
33830;SDS011;20137;48.834;8.732;2023-11-22T12:08:44;10.50;;;6.22;;
33830;SDS011;20137;48.834;8.732;2023-11-22T12:11:10;12.30;;;6.45;;
33830;SDS011;20137;48.834;8.732;2023-11-22T12:13:37;11.52;;;6.43;;
33830;SDS011;20137;48.834;8.732;2023-11-22T12:16:12;11.48;;;6.50;;
33830;SDS011;20137;48.834;8.732;2023-11-22T12:18:41;11.77;;;6.03;;
33830;SDS011;20137;48.834;8.732;2023-11-22T12:21:12;11.38;;;6.65;;
33830;SDS011;20137;48.834;8.732;2023-11-22T12:23:38;11.30;;;6.53;;
33830;SDS011;20137;48.834;8.732;2023-11-22T12:26:09;11.23;;;5.75;;
33830;SDS011;20137;48.834;8.732;2023-11-22T12:28:36;10.52;;;5.97;;
33830;SDS011;20137;48.834;8.732;2023-11-22T12:33:37;12.52;;;6.65;;
33830;SDS011;20137;48.834;8.732;2023-11-22T12:36:05;11.27;;;5.97;;
33830;SDS011;20137;48.834;8.732;2023-11-22T12:38:33;10.25;;;5.93;;
33830;SDS011;20137;48.834;8.732;2023-11-22T12:41:00;14.20;;;6.57;;
33830;SDS011;20137;48.834;8.732;2023-11-22T12:43:28;12.55;;;7.13;;
33830;SDS011;20137;48.834;8.732;2023-11-22T12:46:02;10.48;;;6.13;;
33830;SDS011;20137;48.834;8.732;2023-11-22T12:48:41;16.00;;;7.60;;
33830;SDS011;20137;48.834;8.732;2023-11-22T12:51:16;12.75;;;7.03;;
33830;SDS011;20137;48.834;8.732;2023-11-22T12:53:47;12.35;;;7.15;;
33830;SDS011;20137;48.834;8.732;2023-11-22T12:56:14;15.30;;;6.90;;
33830;SDS011;20137;48.834;8.732;2023-11-22T12:58:40;13.02;;;6.55;;
33830;SDS011;20137;48.834;8.732;2023-11-22T13:01:05;11.38;;;7.10;;
33830;SDS011;20137;48.834;8.732;2023-11-22T13:03:31;13.38;;;7.15;;
33830;SDS011;20137;48.834;8.732;2023-11-22T13:05:57;11.32;;;6.68;;
33830;SDS011;20137;48.834;8.732;2023-11-22T13:08:23;11.93;;;5.85;;
33830;SDS011;20137;48.834;8.732;2023-11-22T13:10:53;12.15;;;7.03;;
33830;SDS011;20137;48.834;8.732;2023-11-22T13:13:23;11.75;;;6.78;;
33830;SDS011;20137;48.834;8.732;2023-11-22T13:15:50;12.10;;;6.85;;
33830;SDS011;20137;48.834;8.732;2023-11-22T13:18:16;12.65;;;6.38;;
33830;SDS011;20137;48.834;8.732;2023-11-22T13:20:42;11.68;;;6.65;;
33830;SDS011;20137;48.834;8.732;2023-11-22T13:23:08;16.10;;;6.82;;
33830;SDS011;20137;48.834;8.732;2023-11-22T13:25:35;11.93;;;7.05;;
33830;SDS011;20137;48.834;8.732;2023-11-22T13:28:00;13.00;;;6.85;;
33830;SDS011;20137;48.834;8.732;2023-11-22T13:30:27;13.85;;;6.68;;
33830;SDS011;20137;48.834;8.732;2023-11-22T13:32:53;11.90;;;6.90;;
33830;SDS011;20137;48.834;8.732;2023-11-22T13:35:23;12.35;;;7.13;;
33830;SDS011;20137;48.834;8.732;2023-11-22T13:37:55;16.27;;;7.15;;
33830;SDS011;20137;48.834;8.732;2023-11-22T13:40:26;13.95;;;7.38;;
33830;SDS011;20137;48.834;8.732;2023-11-22T13:42:55;15.55;;;6.72;;
33830;SDS011;20137;48.834;8.732;2023-11-22T13:45:21;12.27;;;6.72;;
33830;SDS011;20137;48.834;8.732;2023-11-22T13:47:48;12.20;;;6.90;;
33830;SDS011;20137;48.834;8.732;2023-11-22T13:50:23;15.32;;;6.80;;
33830;SDS011;20137;48.834;8.732;2023-11-22T13:52:52;13.57;;;7.03;;
33830;SDS011;20137;48.834;8.732;2023-11-22T13:55:19;15.10;;;6.78;;
33830;SDS011;20137;48.834;8.732;2023-11-22T13:57:51;13.85;;;7.03;;
33830;SDS011;20137;48.834;8.732;2023-11-22T14:00:19;13.18;;;6.68;;
33830;SDS011;20137;48.834;8.732;2023-11-22T14:02:49;11.85;;;6.55;;
33830;SDS011;20137;48.834;8.732;2023-11-22T14:05:21;11.38;;;6.43;;
33830;SDS011;20137;48.834;8.732;2023-11-22T14:07:50;13.40;;;6.88;;
33830;SDS011;20137;48.834;8.732;2023-11-22T14:10:18;14.05;;;6.25;;
33830;SDS011;20137;48.834;8.732;2023-11-22T14:12:44;11.43;;;6.78;;
33830;SDS011;20137;48.834;8.732;2023-11-22T14:15:11;15.27;;;6.82;;
33830;SDS011;20137;48.834;8.732;2023-11-22T14:17:37;12.65;;;6.70;;
33830;SDS011;20137;48.834;8.732;2023-11-22T14:20:15;15.32;;;6.97;;
33830;SDS011;20137;48.834;8.732;2023-11-22T14:22:41;13.48;;;7.22;;
33830;SDS011;20137;48.834;8.732;2023-11-22T14:25:09;14.65;;;6.85;;
33830;SDS011;20137;48.834;8.732;2023-11-22T14:27:41;14.18;;;7.22;;
33830;SDS011;20137;48.834;8.732;2023-11-22T14:30:08;12.32;;;6.53;;
33830;SDS011;20137;48.834;8.732;2023-11-22T14:32:36;14.25;;;7.13;;
33830;SDS011;20137;48.834;8.732;2023-11-22T14:35:05;12.48;;;6.95;;
33830;SDS011;20137;48.834;8.732;2023-11-22T14:37:34;11.27;;;6.78;;
33830;SDS011;20137;48.834;8.732;2023-11-22T14:40:01;14.20;;;7.00;;
33830;SDS011;20137;48.834;8.732;2023-11-22T14:42:29;12.43;;;6.43;;
33830;SDS011;20137;48.834;8.732;2023-11-22T14:44:56;13.07;;;6.45;;
33830;SDS011;20137;48.834;8.732;2023-11-22T14:47:22;14.18;;;6.88;;
33830;SDS011;20137;48.834;8.732;2023-11-22T14:49:51;10.82;;;6.70;;
33830;SDS011;20137;48.834;8.732;2023-11-22T14:52:19;12.18;;;7.18;;